Sainte Genevieve, Missouri
Current Conditions -  °F | °C
As of 7:15 AM on Friday 28 Nov 2014 (Local Time) from KSAR Reporting Station
Clear Clear  
Wind Chill: -9°   Ceiling: Unl
Heat Index: -4°   Visibility: 7mi
Dew Point: -5°   Wind: 8mph
Humidity: 93%   Direction: 150°SSE
Pressure: 30.31"   Gusts: NA
Location:  37.98°N, 90.04°W
Report Text: KSAR 281315Z AUTO 15007KT 7SM CLR M04/M05 A3031 RMK AO2 T10371047
Loading
Personal Weather Stations






























Interactive Weather Map New forecast layout! Learn more

10-Day Weather Forecast

Advertisements
Track Severe Weather on mobile